Lusk, WY (82225)

8:25 AM MDT on October 31, 2014 (GMT -0600)
LEMS | Change Station
CLOSE
Current Station
Personal Weather Station
Location: Lusk, WY
Elevation: 5070 ft
Nearby Weather Stations

Elev 5070 ft 42.76 °N, 104.45 °W | Updated 3 minutes ago

Partly Cloudy
Partly Cloudy
28.2 °F
Feels Like 16 °F
N
17.0
Wind Variable Wind from SE
Gusts 20.0 mph

Today
High -- | Low -- °F
--% Chance of Precip.
Yesterday
High -- | Low -- °F
Precip. -- in
7:30 AM 5:51 PM
First Quarter, 55% visible
Pressure 30.26 in
Visibility 10.0 miles
Clouds Clear
Windchill 16 °F
Dew Point 26 °F
Humidity 93%
Rainfall 0.00 in
Snow Depth Not available.
UV 0 out of 12
Pollen 1.20 out of 12
Air Quality Not available.
Flu Activity Not available.
METAR KDGW 311353Z AUTO 13018G26KT 10SM CLR 01/M02 A3022 RMK AO2 PK WND 13026/1336 SLP246 T00061022

More Conditions Fewer Conditions

Pressure 30.26 in
Visibility 10.0 miles
Clouds Clear
Windchill 16 °F
Dew Point 26 °F
Humidity 93%
Rainfall 0.00 in
Snow Depth Not available.
UV 0 out of 12
Pollen 1.20 out of 12
Air Quality Not available.
Flu Activity Not available.
METAR KDGW 311353Z AUTO 13018G26KT 10SM CLR 01/M02 A3022 RMK AO2 PK WND 13026/1336 SLP246 T00061022

More Conditions Fewer Conditions

10-Day Weather Forecast

Almanac

Astronomy

Oct. 31, 2014 Rise Set
Actual Time
Civil Twilight
Nautical Twilight
Astronomical Twilight
Moon
Length of Visible Light
Length of Day
Tomorrow will be .
, % of the Moon is Illuminated

Today's Extremes

State Highs State Lows

Community

WunderPhotos

Upload Photos

1,766,617 photos uploaded!

WunderBlogs® & News

Nearby

Air Quality

  Air Quality AQ Index Pollutant
Not available.

Snow Depth

Station Depth Elevation

Earthquake Activity

City Distance Mag. Time & Date
Minimum magnitude displayed is 2.5.

Coastal Water Temperatures

Place Temperature

Nearby Weather Stations